sensor_id;sensor_type;location;lat;lon;timestamp;pressure;altitude;pressure_sealevel;temperature;humidity
5522;BME280;2783;48.730;8.006;2022-10-20T00:00:06;100303.69;;;13.61;100.00
5522;BME280;2783;48.730;8.006;2022-10-20T00:02:32;100297.72;;;13.55;100.00
5522;BME280;2783;48.730;8.006;2022-10-20T00:04:57;100305.84;;;13.52;100.00
5522;BME280;2783;48.730;8.006;2022-10-20T00:07:23;100301.44;;;13.51;100.00
5522;BME280;2783;48.730;8.006;2022-10-20T00:09:48;100307.84;;;13.47;100.00
5522;BME280;2783;48.730;8.006;2022-10-20T00:12:21;100293.78;;;13.42;100.00
5522;BME280;2783;48.730;8.006;2022-10-20T00:14:47;100290.31;;;13.40;100.00
5522;BME280;2783;48.730;8.006;2022-10-20T00:17:12;100276.19;;;13.36;100.00
5522;BME280;2783;48.730;8.006;2022-10-20T00:19:37;100263.84;;;13.34;100.00
5522;BME280;2783;48.730;8.006;2022-10-20T00:22:03;100254.88;;;13.35;100.00
5522;BME280;2783;48.730;8.006;2022-10-20T00:24:28;100268.22;;;13.35;100.00
5522;BME280;2783;48.730;8.006;2022-10-20T00:26:54;100263.84;;;13.34;100.00
5522;BME280;2783;48.730;8.006;2022-10-20T00:29:19;100258.38;;;13.37;100.00
5522;BME280;2783;48.730;8.006;2022-10-20T00:31:45;100247.53;;;13.40;100.00
5522;BME280;2783;48.730;8.006;2022-10-20T00:34:10;100240.59;;;13.36;100.00
5522;BME280;2783;48.730;8.006;2022-10-20T00:36:36;100252.88;;;13.40;100.00
5522;BME280;2783;48.730;8.006;2022-10-20T00:39:04;100250.28;;;13.38;100.00
5522;BME280;2783;48.730;8.006;2022-10-20T00:41:30;100242.34;;;13.37;100.00
5522;BME280;2783;48.730;8.006;2022-10-20T00:43:58;100229.91;;;13.36;100.00
5522;BME280;2783;48.730;8.006;2022-10-20T00:46:32;100234.31;;;13.37;100.00
5522;BME280;2783;48.730;8.006;2022-10-20T00:49:06;100228.97;;;13.37;100.00
5522;BME280;2783;48.730;8.006;2022-10-20T00:51:36;100232.53;;;13.37;100.00
5522;BME280;2783;48.730;8.006;2022-10-20T00:54:23;100220.81;;;13.40;100.00
5522;BME280;2783;48.730;8.006;2022-10-20T00:56:50;100231.28;;;13.46;100.00
5522;BME280;2783;48.730;8.006;2022-10-20T00:59:21;100209.91;;;13.46;100.00
5522;BME280;2783;48.730;8.006;2022-10-20T01:01:47;100211.91;;;13.61;100.00
5522;BME280;2783;48.730;8.006;2022-10-20T01:04:14;100198.31;;;13.67;100.00
5522;BME280;2783;48.730;8.006;2022-10-20T01:06:40;100188.16;;;13.75;100.00
5522;BME280;2783;48.730;8.006;2022-10-20T01:09:06;100205.84;;;13.79;100.00
5522;BME280;2783;48.730;8.006;2022-10-20T01:11:44;100206.47;;;13.84;100.00
5522;BME280;2783;48.730;8.006;2022-10-20T01:14:28;100216.06;;;13.89;100.00
5522;BME280;2783;48.730;8.006;2022-10-20T01:28:41;100188.47;;;14.29;100.00
5522;BME280;2783;48.730;8.006;2022-10-20T01:33:55;100189.94;;;14.36;100.00
5522;BME280;2783;48.730;8.006;2022-10-20T01:36:55;100202.44;;;14.35;100.00
5522;BME280;2783;48.730;8.006;2022-10-20T01:39:39;100200.63;;;14.36;100.00
5522;BME280;2783;48.730;8.006;2022-10-20T01:42:13;100205.63;;;14.43;100.00
5522;BME280;2783;48.730;8.006;2022-10-20T01:44:41;100203.69;;;14.47;100.00
5522;BME280;2783;48.730;8.006;2022-10-20T01:47:09;100197.25;;;14.51;100.00
5522;BME280;2783;48.730;8.006;2022-10-20T01:49:36;100201.66;;;14.52;100.00
5522;BME280;2783;48.730;8.006;2022-10-20T01:52:02;100205.28;;;14.51;100.00
5522;BME280;2783;48.730;8.006;2022-10-20T01:54:29;100188.28;;;14.52;100.00
5522;BME280;2783;48.730;8.006;2022-10-20T01:57:06;100191.78;;;14.54;100.00
5522;BME280;2783;48.730;8.006;2022-10-20T02:05:17;100163.19;;;14.55;100.00
5522;BME280;2783;48.730;8.006;2022-10-20T02:07:48;100158.53;;;14.58;100.00
5522;BME280;2783;48.730;8.006;2022-10-20T02:10:31;100157.63;;;14.59;100.00
5522;BME280;2783;48.730;8.006;2022-10-20T02:13:02;100158.69;;;14.55;100.00
5522;BME280;2783;48.730;8.006;2022-10-20T02:15:30;100161.38;;;14.55;100.00
5522;BME280;2783;48.730;8.006;2022-10-20T02:18:00;100169.47;;;14.53;100.00
5522;BME280;2783;48.730;8.006;2022-10-20T02:20:28;100162.53;;;14.49;100.00
5522;BME280;2783;48.730;8.006;2022-10-20T02:22:57;100160.72;;;14.50;100.00
5522;BME280;2783;48.730;8.006;2022-10-20T02:25:23;100169.69;;;14.49;100.00
5522;BME280;2783;48.730;8.006;2022-10-20T02:27:50;100162.72;;;14.45;100.00
5522;BME280;2783;48.730;8.006;2022-10-20T02:30:17;100170.00;;;14.43;100.00
5522;BME280;2783;48.730;8.006;2022-10-20T02:32:45;100170.75;;;14.45;100.00
5522;BME280;2783;48.730;8.006;2022-10-20T02:35:18;100166.94;;;14.50;100.00
5522;BME280;2783;48.730;8.006;2022-10-20T02:37:44;100165.00;;;14.54;100.00
5522;BME280;2783;48.730;8.006;2022-10-20T02:40:10;100171.41;;;14.50;100.00
5522;BME280;2783;48.730;8.006;2022-10-20T02:42:36;100173.28;;;14.48;100.00
5522;BME280;2783;48.730;8.006;2022-10-20T02:45:03;100173.44;;;14.45;100.00
5522;BME280;2783;48.730;8.006;2022-10-20T02:47:28;100179.59;;;14.47;100.00
5522;BME280;2783;48.730;8.006;2022-10-20T02:49:54;100187.47;;;14.50;100.00
5522;BME280;2783;48.730;8.006;2022-10-20T02:52:19;100182.28;;;14.47;100.00
5522;BME280;2783;48.730;8.006;2022-10-20T02:54:44;100183.09;;;14.49;100.00
5522;BME280;2783;48.730;8.006;2022-10-20T02:57:10;100187.47;;;14.50;100.00
5522;BME280;2783;48.730;8.006;2022-10-20T02:59:36;100183.88;;;14.51;100.00
5522;BME280;2783;48.730;8.006;2022-10-20T03:02:01;100176.78;;;14.50;100.00
5522;BME280;2783;48.730;8.006;2022-10-20T03:04:27;100176.91;;;14.47;100.00
5522;BME280;2783;48.730;8.006;2022-10-20T03:06:52;100167.94;;;14.48;100.00
5522;BME280;2783;48.730;8.006;2022-10-20T03:09:18;100169.84;;;14.46;100.00
5522;BME280;2783;48.730;8.006;2022-10-20T03:11:43;100176.47;;;14.37;100.00
5522;BME280;2783;48.730;8.006;2022-10-20T03:14:10;100167.56;;;14.37;100.00
5522;BME280;2783;48.730;8.006;2022-10-20T03:16:35;100166.66;;;14.38;100.00
5522;BME280;2783;48.730;8.006;2022-10-20T03:19:02;100150.72;;;14.35;100.00
5522;BME280;2783;48.730;8.006;2022-10-20T03:21:27;100137.41;;;14.33;100.00
5522;BME280;2783;48.730;8.006;2022-10-20T03:23:53;100129.44;;;14.32;100.00
5522;BME280;2783;48.730;8.006;2022-10-20T03:26:19;100134.00;;;14.30;100.00
5522;BME280;2783;48.730;8.006;2022-10-20T03:28:44;100130.41;;;14.31;100.00
5522;BME280;2783;48.730;8.006;2022-10-20T03:31:10;100122.53;;;14.28;100.00
5522;BME280;2783;48.730;8.006;2022-10-20T03:33:35;100122.63;;;14.25;100.00
5522;BME280;2783;48.730;8.006;2022-10-20T03:36:01;100132.59;;;14.21;100.00
5522;BME280;2783;48.730;8.006;2022-10-20T03:38:26;100131.53;;;14.25;100.00
5522;BME280;2783;48.730;8.006;2022-10-20T03:40:51;100139.81;;;14.19;100.00
5522;BME280;2783;48.730;8.006;2022-10-20T03:43:17;100130.09;;;14.17;100.00
5522;BME280;2783;48.730;8.006;2022-10-20T03:45:43;100133.59;;;14.19;100.00
5522;BME280;2783;48.730;8.006;2022-10-20T03:48:10;100132.84;;;14.15;100.00
5522;BME280;2783;48.730;8.006;2022-10-20T03:50:40;100137.06;;;14.21;100.00
5522;BME280;2783;48.730;8.006;2022-10-20T03:53:07;100136.34;;;14.17;100.00
5522;BME280;2783;48.730;8.006;2022-10-20T03:55:32;100130.97;;;14.17;100.00
5522;BME280;2783;48.730;8.006;2022-10-20T03:57:58;100132.66;;;14.20;100.00
5522;BME280;2783;48.730;8.006;2022-10-20T04:00:23;100129.94;;;14.21;100.00
5522;BME280;2783;48.730;8.006;2022-10-20T04:02:49;100118.28;;;14.22;100.00
5522;BME280;2783;48.730;8.006;2022-10-20T04:05:17;100121.81;;;14.23;100.00
5522;BME280;2783;48.730;8.006;2022-10-20T04:07:43;100116.53;;;14.21;100.00
5522;BME280;2783;48.730;8.006;2022-10-20T04:10:10;100118.28;;;14.22;100.00
5522;BME280;2783;48.730;8.006;2022-10-20T04:12:35;100115.59;;;14.22;100.00
5522;BME280;2783;48.730;8.006;2022-10-20T04:15:01;100121.16;;;14.18;100.00
5522;BME280;2783;48.730;8.006;2022-10-20T04:17:26;100116.94;;;14.12;100.00
5522;BME280;2783;48.730;8.006;2022-10-20T04:19:52;100119.84;;;14.08;100.00
5522;BME280;2783;48.730;8.006;2022-10-20T04:22:17;100122.44;;;14.09;100.00
5522;BME280;2783;48.730;8.006;2022-10-20T04:24:43;100114.41;;;14.09;100.00
5522;BME280;2783;48.730;8.006;2022-10-20T04:27:09;100116.06;;;14.12;100.00
5522;BME280;2783;48.730;8.006;2022-10-20T04:29:34;100116.81;;;14.15;100.00
5522;BME280;2783;48.730;8.006;2022-10-20T04:32:00;100107.13;;;14.13;100.00
5522;BME280;2783;48.730;8.006;2022-10-20T04:34:25;100094.66;;;14.12;100.00
5522;BME280;2783;48.730;8.006;2022-10-20T04:36:51;100100.03;;;14.12;100.00
5522;BME280;2783;48.730;8.006;2022-10-20T04:39:16;100087.44;;;14.14;100.00
5522;BME280;2783;48.730;8.006;2022-10-20T04:41:42;100073.22;;;14.13;100.00
5522;BME280;2783;48.730;8.006;2022-10-20T04:44:07;100088.41;;;14.13;100.00
5522;BME280;2783;48.730;8.006;2022-10-20T04:46:33;100092.81;;;14.14;100.00
5522;BME280;2783;48.730;8.006;2022-10-20T04:48:58;100092.88;;;14.12;100.00
5522;BME280;2783;48.730;8.006;2022-10-20T04:51:23;100090.28;;;14.11;100.00
5522;BME280;2783;48.730;8.006;2022-10-20T04:53:49;100086.72;;;14.10;100.00
5522;BME280;2783;48.730;8.006;2022-10-20T04:56:17;100078.63;;;14.12;100.00
5522;BME280;2783;48.730;8.006;2022-10-20T04:58:51;100071.47;;;14.12;100.00
5522;BME280;2783;48.730;8.006;2022-10-20T05:01:18;100075.19;;;14.10;100.00
5522;BME280;2783;48.730;8.006;2022-10-20T05:03:44;100080.38;;;14.13;100.00
5522;BME280;2783;48.730;8.006;2022-10-20T05:06:15;100072.44;;;14.11;100.00
5522;BME280;2783;48.730;8.006;2022-10-20T05:08:43;100070.66;;;14.10;100.00
5522;BME280;2783;48.730;8.006;2022-10-20T05:11:09;100067.81;;;14.15;100.00
5522;BME280;2783;48.730;8.006;2022-10-20T05:13:35;100071.19;;;14.18;100.00
5522;BME280;2783;48.730;8.006;2022-10-20T05:16:01;100050.72;;;14.17;100.00
5522;BME280;2783;48.730;8.006;2022-10-20T05:18:27;100059.41;;;14.22;100.00
5522;BME280;2783;48.730;8.006;2022-10-20T05:20:53;100064.75;;;14.22;100.00
5522;BME280;2783;48.730;8.006;2022-10-20T05:23:18;100070.13;;;14.22;100.00
5522;BME280;2783;48.730;8.006;2022-10-20T05:25:43;100078.34;;;14.18;100.00
5522;BME280;2783;48.730;8.006;2022-10-20T05:28:09;100091.06;;;14.13;100.00
5522;BME280;2783;48.730;8.006;2022-10-20T05:30:35;100093.25;;;14.05;100.00
5522;BME280;2783;48.730;8.006;2022-10-20T05:33:01;100100.91;;;14.12;100.00
5522;BME280;2783;48.730;8.006;2022-10-20T05:35:27;100095.63;;;14.11;100.00
5522;BME280;2783;48.730;8.006;2022-10-20T05:37:53;100094.66;;;14.12;100.00
5522;BME280;2783;48.730;8.006;2022-10-20T05:40:19;100094.63;;;14.13;100.00
5522;BME280;2783;48.730;8.006;2022-10-20T05:42:44;100100.75;;;14.15;100.00
5522;BME280;2783;48.730;8.006;2022-10-20T05:45:10;100092.94;;;14.11;100.00
5522;BME280;2783;48.730;8.006;2022-10-20T05:47:35;100094.75;;;14.10;100.00
5522;BME280;2783;48.730;8.006;2022-10-20T05:50:01;100090.19;;;14.12;100.00
5522;BME280;2783;48.730;8.006;2022-10-20T05:52:26;100089.22;;;14.15;100.00
5522;BME280;2783;48.730;8.006;2022-10-20T05:54:51;100082.97;;;14.14;100.00
5522;BME280;2783;48.730;8.006;2022-10-20T05:57:17;100083.06;;;14.13;100.00
5522;BME280;2783;48.730;8.006;2022-10-20T05:59:42;100084.13;;;14.09;100.00
5522;BME280;2783;48.730;8.006;2022-10-20T06:02:11;100086.59;;;14.13;100.00
5522;BME280;2783;48.730;8.006;2022-10-20T06:04:36;100087.31;;;14.17;100.00
5522;BME280;2783;48.730;8.006;2022-10-20T06:07:03;100082.91;;;14.16;100.00
5522;BME280;2783;48.730;8.006;2022-10-20T06:09:30;100088.41;;;14.13;100.00
5522;BME280;2783;48.730;8.006;2022-10-20T06:11:56;100102.69;;;14.12;100.00
5522;BME280;2783;48.730;8.006;2022-10-20T06:14:21;100096.56;;;14.10;100.00
5522;BME280;2783;48.730;8.006;2022-10-20T06:16:51;100103.78;;;14.08;100.00
5522;BME280;2783;48.730;8.006;2022-10-20T06:19:17;100099.25;;;14.10;100.00
5522;BME280;2783;48.730;8.006;2022-10-20T06:21:43;100098.06;;;14.15;100.00
5522;BME280;2783;48.730;8.006;2022-10-20T06:24:09;100093.03;;;14.09;100.00
5522;BME280;2783;48.730;8.006;2022-10-20T06:26:35;100110.13;;;14.05;100.00
5522;BME280;2783;48.730;8.006;2022-10-20T06:29:04;100115.63;;;14.02;100.00
5522;BME280;2783;48.730;8.006;2022-10-20T06:31:33;100119.19;;;14.03;100.00
5522;BME280;2783;48.730;8.006;2022-10-20T06:33:59;100122.00;;;14.00;100.00
5522;BME280;2783;48.730;8.006;2022-10-20T06:36:25;100114.63;;;14.05;100.00
5522;BME280;2783;48.730;8.006;2022-10-20T06:38:55;100117.81;;;14.13;100.00
5522;BME280;2783;48.730;8.006;2022-10-20T06:41:22;100126.72;;;14.13;100.00
5522;BME280;2783;48.730;8.006;2022-10-20T06:43:48;100120.56;;;14.11;100.00
5522;BME280;2783;48.730;8.006;2022-10-20T06:46:16;100124.25;;;14.09;100.00
5522;BME280;2783;48.730;8.006;2022-10-20T06:48:43;100121.41;;;14.12;100.00
5522;BME280;2783;48.730;8.006;2022-10-20T06:51:13;100122.00;;;14.18;100.00
5522;BME280;2783;48.730;8.006;2022-10-20T06:53:40;100123.03;;;14.16;100.00
5522;BME280;2783;48.730;8.006;2022-10-20T06:56:09;100123.03;;;14.16;100.00
5522;BME280;2783;48.730;8.006;2022-10-20T06:58:36;100126.59;;;14.16;100.00
5522;BME280;2783;48.730;8.006;2022-10-20T07:01:08;100114.88;;;14.19;100.00
5522;BME280;2783;48.730;8.006;2022-10-20T07:03:35;100096.59;;;14.28;100.00
5522;BME280;2783;48.730;8.006;2022-10-20T07:06:05;100094.44;;;14.36;100.00
5522;BME280;2783;48.730;8.006;2022-10-20T07:08:32;100098.13;;;14.34;100.00
5522;BME280;2783;48.730;8.006;2022-10-20T07:11:05;100107.78;;;14.38;100.00
5522;BME280;2783;48.730;8.006;2022-10-20T07:13:32;100109.50;;;14.39;100.00
5522;BME280;2783;48.730;8.006;2022-10-20T07:15:58;100096.50;;;14.31;100.00
5522;BME280;2783;48.730;8.006;2022-10-20T07:18:25;100117.81;;;14.33;100.00
5522;BME280;2783;48.730;8.006;2022-10-20T07:20:55;100122.06;;;14.37;100.00
5522;BME280;2783;48.730;8.006;2022-10-20T07:23:20;100107.78;;;14.38;100.00
5522;BME280;2783;48.730;8.006;2022-10-20T07:25:46;100101.97;;;14.47;100.00
5522;BME280;2783;48.730;8.006;2022-10-20T07:28:11;100116.09;;;14.50;100.00
5522;BME280;2783;48.730;8.006;2022-10-20T07:30:41;100111.72;;;14.48;100.00
5522;BME280;2783;48.730;8.006;2022-10-20T07:33:07;100112.53;;;14.50;100.00
5522;BME280;2783;48.730;8.006;2022-10-20T07:35:34;100101.69;;;14.53;100.00
5522;BME280;2783;48.730;8.006;2022-10-20T07:37:59;100101.69;;;14.53;100.00
5522;BME280;2783;48.730;8.006;2022-10-20T07:40:25;100098.88;;;14.56;100.00
5522;BME280;2783;48.730;8.006;2022-10-20T07:42:51;100110.34;;;14.58;100.00
5522;BME280;2783;48.730;8.006;2022-10-20T07:45:16;100105.59;;;14.65;100.00
5522;BME280;2783;48.730;8.006;2022-10-20T07:47:42;100108.25;;;14.65;100.00
5522;BME280;2783;48.730;8.006;2022-10-20T07:50:08;100131.06;;;14.73;100.00
5522;BME280;2783;48.730;8.006;2022-10-20T07:52:34;100139.91;;;14.75;100.00
5522;BME280;2783;48.730;8.006;2022-10-20T07:54:59;100142.50;;;14.77;100.00
5522;BME280;2783;48.730;8.006;2022-10-20T07:57:25;100139.47;;;14.84;100.00
5522;BME280;2783;48.730;8.006;2022-10-20T07:59:50;100146.25;;;14.91;100.00
5522;BME280;2783;48.730;8.006;2022-10-20T08:02:16;100159.63;;;14.91;100.00
5522;BME280;2783;48.730;8.006;2022-10-20T08:04:41;100182.25;;;14.86;100.00
5522;BME280;2783;48.730;8.006;2022-10-20T08:07:09;100179.75;;;14.81;100.00
5522;BME280;2783;48.730;8.006;2022-10-20T08:09:35;100166.09;;;14.87;100.00
5522;BME280;2783;48.730;8.006;2022-10-20T08:12:01;100191.59;;;14.96;100.00
5522;BME280;2783;48.730;8.006;2022-10-20T08:14:26;100191.06;;;15.06;100.00
5522;BME280;2783;48.730;8.006;2022-10-20T08:16:56;100187.47;;;15.24;100.00
5522;BME280;2783;48.730;8.006;2022-10-20T08:19:21;100197.63;;;15.36;100.00
5522;BME280;2783;48.730;8.006;2022-10-20T08:21:47;100189.28;;;15.42;100.00
5522;BME280;2783;48.730;8.006;2022-10-20T08:24:12;100198.31;;;15.58;100.00
5522;BME280;2783;48.730;8.006;2022-10-20T08:26:38;100203.84;;;15.72;100.00
5522;BME280;2783;48.730;8.006;2022-10-20T08:29:03;100200.22;;;15.91;100.00
5522;BME280;2783;48.730;8.006;2022-10-20T08:31:28;100205.75;;;15.88;100.00
5522;BME280;2783;48.730;8.006;2022-10-20T08:33:54;100204.72;;;15.90;100.00
5522;BME280;2783;48.730;8.006;2022-10-20T08:36:21;100199.91;;;15.97;100.00
5522;BME280;2783;48.730;8.006;2022-10-20T08:38:46;100189.00;;;16.00;100.00
5522;BME280;2783;48.730;8.006;2022-10-20T08:41:24;100191.06;;;16.12;100.00
5522;BME280;2783;48.730;8.006;2022-10-20T08:43:53;100177.44;;;15.99;100.00
5522;BME280;2783;48.730;8.006;2022-10-20T08:46:23;100189.00;;;16.00;100.00
5522;BME280;2783;48.730;8.006;2022-10-20T08:48:51;100182.38;;;16.07;100.00
5522;BME280;2783;48.730;8.006;2022-10-20T08:51:21;100185.16;;;16.22;100.00
5522;BME280;2783;48.730;8.006;2022-10-20T08:53:49;100176.22;;;16.22;100.00
5522;BME280;2783;48.730;8.006;2022-10-20T08:56:19;100167.28;;;16.21;100.00
5522;BME280;2783;48.730;8.006;2022-10-20T08:58:47;100159.66;;;16.14;100.00
5522;BME280;2783;48.730;8.006;2022-10-20T09:01:26;100169.78;;;16.09;100.00
5522;BME280;2783;48.730;8.006;2022-10-20T09:04:10;100166.38;;;16.05;100.00
5522;BME280;2783;48.730;8.006;2022-10-20T09:06:40;100160.44;;;16.16;100.00
5522;BME280;2783;48.730;8.006;2022-10-20T09:09:12;100164.38;;;16.26;100.00
5522;BME280;2783;48.730;8.006;2022-10-20T09:11:38;100157.50;;;16.37;100.00
5522;BME280;2783;48.730;8.006;2022-10-20T09:14:07;100152.78;;;16.58;100.00
5522;BME280;2783;48.730;8.006;2022-10-20T09:16:33;100148.91;;;16.63;100.00
5522;BME280;2783;48.730;8.006;2022-10-20T09:19:20;100174.91;;;16.63;100.00
5522;BME280;2783;48.730;8.006;2022-10-20T09:21:53;100165.34;;;16.57;100.00
5522;BME280;2783;48.730;8.006;2022-10-20T09:24:20;100169.41;;;16.49;100.00
5522;BME280;2783;48.730;8.006;2022-10-20T09:26:48;100175.41;;;16.54;100.00
5522;BME280;2783;48.730;8.006;2022-10-20T09:29:21;100175.56;;;16.51;100.00
5522;BME280;2783;48.730;8.006;2022-10-20T09:31:53;100184.41;;;16.53;100.00
5522;BME280;2783;48.730;8.006;2022-10-20T09:34:31;100169.00;;;16.56;100.00
5522;BME280;2783;48.730;8.006;2022-10-20T09:37:01;100160.75;;;16.59;100.00
5522;BME280;2783;48.730;8.006;2022-10-20T09:39:30;100170.59;;;16.76;100.00
5522;BME280;2783;48.730;8.006;2022-10-20T09:42:02;100161.41;;;16.80;100.00
5522;BME280;2783;48.730;8.006;2022-10-20T09:44:30;100146.31;;;16.77;100.00
5522;BME280;2783;48.730;8.006;2022-10-20T09:46:57;100150.84;;;16.77;100.00
5522;BME280;2783;48.730;8.006;2022-10-20T09:49:26;100147.63;;;16.70;100.00
5522;BME280;2783;48.730;8.006;2022-10-20T09:51:53;100136.00;;;16.70;100.00
5522;BME280;2783;48.730;8.006;2022-10-20T09:54:19;100101.09;;;16.70;100.00
5522;BME280;2783;48.730;8.006;2022-10-20T09:56:47;100072.75;;;16.80;100.00
5522;BME280;2783;48.730;8.006;2022-10-20T10:01:58;100124.22;;;16.88;100.00
5522;BME280;2783;48.730;8.006;2022-10-20T10:06:58;100152.03;;;16.71;100.00
5522;BME280;2783;48.730;8.006;2022-10-20T10:09:32;100142.50;;;16.97;100.00
5522;BME280;2783;48.730;8.006;2022-10-20T10:14:38;100131.13;;;17.54;100.00
5522;BME280;2783;48.730;8.006;2022-10-20T10:17:36;100131.16;;;17.68;100.00
5522;BME280;2783;48.730;8.006;2022-10-20T10:20:24;100129.44;;;17.67;100.00
5522;BME280;2783;48.730;8.006;2022-10-20T10:23:26;100133.06;;;17.66;100.00
5522;BME280;2783;48.730;8.006;2022-10-20T10:25:51;100114.16;;;17.68;100.00
5522;BME280;2783;48.730;8.006;2022-10-20T10:28:38;100105.63;;;17.75;100.00
5522;BME280;2783;48.730;8.006;2022-10-20T10:33:32;100119.28;;;17.72;100.00
5522;BME280;2783;48.730;8.006;2022-10-20T10:36:00;100104.44;;;17.65;100.00
5522;BME280;2783;48.730;8.006;2022-10-20T10:38:27;100101.16;;;17.60;100.00
5522;BME280;2783;48.730;8.006;2022-10-20T10:42:06;100113.84;;;17.58;100.00
5522;BME280;2783;48.730;8.006;2022-10-20T10:47:28;100098.16;;;17.51;100.00
5522;BME280;2783;48.730;8.006;2022-10-20T10:53:51;100086.34;;;17.53;100.00
5522;BME280;2783;48.730;8.006;2022-10-20T10:56:01;100093.03;;;17.46;100.00
5522;BME280;2783;48.730;8.006;2022-10-20T11:03:45;100099.25;;;17.62;100.00
5522;BME280;2783;48.730;8.006;2022-10-20T11:11:50;100091.13;;;17.78;100.00
5522;BME280;2783;48.730;8.006;2022-10-20T11:22:39;100087.84;;;17.73;100.00
5522;BME280;2783;48.730;8.006;2022-10-20T11:25:13;100082.53;;;17.71;100.00
5522;BME280;2783;48.730;8.006;2022-10-20T11:27:40;100077.44;;;17.67;100.00
5522;BME280;2783;48.730;8.006;2022-10-20T11:30:17;100077.94;;;17.73;100.00
5522;BME280;2783;48.730;8.006;2022-10-20T11:33:08;100073.84;;;17.82;100.00
5522;BME280;2783;48.730;8.006;2022-10-20T11:35:53;100067.03;;;17.90;100.00
5522;BME280;2783;48.730;8.006;2022-10-20T11:38:29;100051.28;;;17.98;100.00
5522;BME280;2783;48.730;8.006;2022-10-20T11:41:03;100043.97;;;18.14;100.00
5522;BME280;2783;48.730;8.006;2022-10-20T11:43:36;100046.56;;;18.02;100.00
5522;BME280;2783;48.730;8.006;2022-10-20T11:46:13;100058.94;;;17.90;100.00
5522;BME280;2783;48.730;8.006;2022-10-20T11:48:51;100056.75;;;17.97;100.00
5522;BME280;2783;48.730;8.006;2022-10-20T11:54:36;100048.56;;;17.98;100.00
5522;BME280;2783;48.730;8.006;2022-10-20T11:57:36;100043.28;;;18.11;100.00
5522;BME280;2783;48.730;8.006;2022-10-20T12:08:12;100029.34;;;18.18;100.00
5522;BME280;2783;48.730;8.006;2022-10-20T12:14:20;100010.28;;;18.35;100.00
5522;BME280;2783;48.730;8.006;2022-10-20T12:24:40;99989.78;;;18.61;98.30
5522;BME280;2783;48.730;8.006;2022-10-20T12:34:47;99964.44;;;18.23;100.00
5522;BME280;2783;48.730;8.006;2022-10-20T12:39:48;99989.22;;;18.14;100.00
5522;BME280;2783;48.730;8.006;2022-10-20T12:42:28;100016.84;;;18.17;100.00
5522;BME280;2783;48.730;8.006;2022-10-20T12:44:55;100025.97;;;18.15;100.00
5522;BME280;2783;48.730;8.006;2022-10-20T12:47:26;100014.91;;;18.19;100.00
5522;BME280;2783;48.730;8.006;2022-10-20T12:52:37;100000.47;;;18.34;100.00
5522;BME280;2783;48.730;8.006;2022-10-20T12:55:18;100001.06;;;18.40;100.00
5522;BME280;2783;48.730;8.006;2022-10-20T12:57:45;100014.03;;;18.47;100.00
5522;BME280;2783;48.730;8.006;2022-10-20T13:15:33;100022.56;;;18.68;99.14
5522;BME280;2783;48.730;8.006;2022-10-20T13:18:11;100010.25;;;18.64;99.27
5522;BME280;2783;48.730;8.006;2022-10-20T13:21:00;100017.66;;;18.60;99.06
5522;BME280;2783;48.730;8.006;2022-10-20T13:26:04;100021.06;;;18.50;99.89
5522;BME280;2783;48.730;8.006;2022-10-20T13:28:33;100009.31;;;18.51;100.00
5522;BME280;2783;48.730;8.006;2022-10-20T13:31:38;100008.91;;;18.57;100.00
5522;BME280;2783;48.730;8.006;2022-10-20T13:36:57;100038.00;;;18.52;100.00
5522;BME280;2783;48.730;8.006;2022-10-20T13:39:51;100020.59;;;18.43;99.99
5522;BME280;2783;48.730;8.006;2022-10-20T13:45:10;99995.84;;;18.36;100.00
5522;BME280;2783;48.730;8.006;2022-10-20T13:47:46;99997.03;;;18.47;100.00
5522;BME280;2783;48.730;8.006;2022-10-20T13:50:29;99980.88;;;18.47;100.00
5522;BME280;2783;48.730;8.006;2022-10-20T13:52:59;99968.75;;;18.40;99.39
5522;BME280;2783;48.730;8.006;2022-10-20T13:55:29;99966.22;;;18.36;99.71
5522;BME280;2783;48.730;8.006;2022-10-20T13:58:18;99960.28;;;18.31;100.00
5522;BME280;2783;48.730;8.006;2022-10-20T14:00:55;99954.91;;;18.31;100.00
5522;BME280;2783;48.730;8.006;2022-10-20T14:03:22;99948.44;;;18.34;100.00
5522;BME280;2783;48.730;8.006;2022-10-20T14:05:47;99954.47;;;18.37;100.00
5522;BME280;2783;48.730;8.006;2022-10-20T14:08:14;99952.69;;;18.24;100.00
5522;BME280;2783;48.730;8.006;2022-10-20T14:10:48;99950.69;;;18.13;100.00
5522;BME280;2783;48.730;8.006;2022-10-20T14:13:26;99950.28;;;18.19;100.00
5522;BME280;2783;48.730;8.006;2022-10-20T14:15:55;99952.63;;;18.11;100.00
5522;BME280;2783;48.730;8.006;2022-10-20T14:18:31;99926.75;;;18.09;100.00
5522;BME280;2783;48.730;8.006;2022-10-20T14:21:13;99938.13;;;18.00;100.00
5522;BME280;2783;48.730;8.006;2022-10-20T14:23:40;99954.00;;;17.90;100.00
5522;BME280;2783;48.730;8.006;2022-10-20T14:26:13;99968.19;;;17.92;100.00
5522;BME280;2783;48.730;8.006;2022-10-20T14:28:40;99969.94;;;17.93;100.00
5522;BME280;2783;48.730;8.006;2022-10-20T14:31:07;99971.75;;;17.93;100.00
5522;BME280;2783;48.730;8.006;2022-10-20T14:33:39;99978.31;;;17.89;100.00
5522;BME280;2783;48.730;8.006;2022-10-20T14:36:05;99980.91;;;17.90;100.00
5522;BME280;2783;48.730;8.006;2022-10-20T14:38:37;99990.13;;;17.86;100.00
5522;BME280;2783;48.730;8.006;2022-10-20T14:41:05;99984.94;;;17.83;100.00
5522;BME280;2783;48.730;8.006;2022-10-20T14:46:00;99978.00;;;17.79;100.00
5522;BME280;2783;48.730;8.006;2022-10-20T14:48:46;99988.41;;;17.85;100.00
5522;BME280;2783;48.730;8.006;2022-10-20T14:56:52;100010.59;;;17.75;100.00
5522;BME280;2783;48.730;8.006;2022-10-20T14:59:26;99992.63;;;17.75;100.00
5522;BME280;2783;48.730;8.006;2022-10-20T15:04:28;99988.97;;;17.76;100.00
5522;BME280;2783;48.730;8.006;2022-10-20T15:07:02;100004.16;;;17.77;100.00
5522;BME280;2783;48.730;8.006;2022-10-20T15:09:43;100000.91;;;17.72;100.00
5522;BME280;2783;48.730;8.006;2022-10-20T15:12:17;100001.63;;;17.60;100.00
5522;BME280;2783;48.730;8.006;2022-10-20T15:14:47;99996.16;;;17.62;100.00
5522;BME280;2783;48.730;8.006;2022-10-20T15:19:57;99960.50;;;17.58;100.00
5522;BME280;2783;48.730;8.006;2022-10-20T15:22:22;99959.94;;;17.53;100.00